createdAt,value
2024-01-15T00:04:00.442Z,70.79
2024-01-15T00:09:22.402Z,70.76
2024-01-15T00:14:44.250Z,69.87
2024-01-15T00:20:06.909Z,71.88
2024-01-15T00:25:28.853Z,71.65
2024-01-15T00:30:50.800Z,72.34
2024-01-15T00:36:12.801Z,73.11
2024-01-15T00:41:34.673Z,74.01
2024-01-15T00:46:56.464Z,74.53
2024-01-15T00:52:18.348Z,74.95
2024-01-15T01:59:35.770Z,75.32
2024-01-15T02:04:57.945Z,75.34
2024-01-15T02:10:19.853Z,75.91
2024-01-15T02:15:41.954Z,75.93
2024-01-15T02:21:04.041Z,76.16
2024-01-15T02:26:26.125Z,76.85
2024-01-15T02:31:48.044Z,77.71
2024-01-15T02:37:09.894Z,76.92
2024-01-15T02:42:31.730Z,77.16
2024-01-15T02:47:53.549Z,77.66
2024-01-15T02:53:15.440Z,78.14
2024-01-15T02:58:37.240Z,78.71
2024-01-15T03:03:59.164Z,80.16
2024-01-15T03:09:21.020Z,80.58
2024-01-15T03:14:43.838Z,80.32
2024-01-15T03:20:06.255Z,80.68
2024-01-15T03:25:28.109Z,80.95
2024-01-15T03:30:50.055Z,81.05
2024-01-15T03:36:12.192Z,80.88
2024-01-15T03:41:34.052Z,80.18
2024-01-15T03:46:56.061Z,80.35
2024-01-15T03:52:17.846Z,80.81
2024-01-15T03:57:39.840Z,81.56
2024-01-15T04:03:01.675Z,82.04
2024-01-15T04:08:23.475Z,82.56
2024-01-15T04:13:45.261Z,81.94
2024-01-15T04:19:07.403Z,80.99
2024-01-15T04:24:29.397Z,79.19
2024-01-15T04:29:51.305Z,79.18
2024-01-15T04:35:13.828Z,78.58
2024-01-15T04:40:36.628Z,77.91
2024-01-15T04:45:58.658Z,76.67
2024-01-15T04:51:20.542Z,76.67
2024-01-15T04:56:42.348Z,75.61
2024-01-15T05:02:04.351Z,74.51
2024-01-15T05:07:26.254Z,74.38
2024-01-15T05:12:48.107Z,73.98
2024-01-15T05:18:10.267Z,74.38
2024-01-15T05:23:32.599Z,74.97
2024-01-15T05:28:54.448Z,75.61
2024-01-15T05:34:16.266Z,75.27
2024-01-15T05:39:38.183Z,74.64
2024-01-15T05:45:00.753Z,74.15
2024-01-15T05:50:23.266Z,73.33
2024-01-15T05:55:45.039Z,73.32
2024-01-15T06:01:06.909Z,73.16
2024-01-15T06:06:28.751Z,73.12
2024-01-15T06:11:50.786Z,73.29
2024-01-15T06:17:12.652Z,73.10
2024-01-15T06:22:34.669Z,72.86
2024-01-15T06:27:56.625Z,72.55
2024-01-15T06:33:18.621Z,72.52
2024-01-15T06:38:40.507Z,72.84
2024-01-15T06:44:02.285Z,73.32
2024-01-15T06:49:24.571Z,73.82
2024-01-15T06:54:46.547Z,73.25
2024-01-15T07:00:09.389Z,73.14
2024-01-15T07:05:31.939Z,73.19
2024-01-15T07:10:53.878Z,72.29
2024-01-15T07:16:22.476Z,71.04
2024-01-15T07:21:54.744Z,70.71
2024-01-15T07:27:18.300Z,70.48
2024-01-15T07:32:41.991Z,70.41
2024-01-15T07:38:03.954Z,70.33
2024-01-15T07:43:25.743Z,70.32
2024-01-15T07:48:47.764Z,69.50
2024-01-15T07:54:09.719Z,68.63
2024-01-15T07:59:31.662Z,69.55
2024-01-15T08:04:53.552Z,68.48
2024-01-15T08:10:15.675Z,67.75
2024-01-15T08:15:37.649Z,68.45
2024-01-15T08:20:59.661Z,66.88
2024-01-15T08:26:22.540Z,66.50
2024-01-15T08:31:44.471Z,66.25
2024-01-15T08:37:06.333Z,65.93
2024-01-15T08:42:28.151Z,66.08
2024-01-15T08:47:50.080Z,65.37
2024-01-15T08:53:11.971Z,64.53
2024-01-15T08:58:33.821Z,63.87
2024-01-15T09:03:55.828Z,64.28
2024-01-15T09:09:19.126Z,64.32
2024-01-15T09:14:41.037Z,62.26
2024-01-15T09:20:05.438Z,62.31
2024-01-15T09:25:27.353Z,63.71
2024-01-15T09:30:49.302Z,62.20
2024-01-15T09:36:11.253Z,61.84
2024-01-15T09:41:33.150Z,61.33
2024-01-15T09:46:57.023Z,60.97
2024-01-15T09:52:20.427Z,61.12
2024-01-15T09:57:43.127Z,61.44
2024-01-15T10:03:06.014Z,61.58
2024-01-15T10:08:27.872Z,61.12
2024-01-15T10:13:56.793Z,61.20
2024-01-15T10:19:19.625Z,61.94
2024-01-15T10:24:42.199Z,61.75
2024-01-15T10:30:04.612Z,61.49
2024-01-15T10:35:36.084Z,61.22
2024-01-15T10:40:58.259Z,60.78
2024-01-15T10:46:20.083Z,61.48
2024-01-15T10:51:43.528Z,61.49
2024-01-15T10:57:06.512Z,61.36
2024-01-15T11:02:29.226Z,60.77
2024-01-15T11:07:51.139Z,60.81
2024-01-15T11:13:15.791Z,60.29
2024-01-15T11:18:42.658Z,62.23
2024-01-15T11:24:07.923Z,64.02
2024-01-15T11:29:31.080Z,67.32
2024-01-15T11:34:59.212Z,66.17
2024-01-15T11:40:38.758Z,68.59
2024-01-15T11:46:03.867Z,68.72
2024-01-15T11:51:25.920Z,70.62
2024-01-15T11:56:48.137Z,73.00
2024-01-15T12:02:12.693Z,73.58
2024-01-15T12:07:34.906Z,73.61
2024-01-15T12:13:13.566Z,72.87
2024-01-15T12:18:35.522Z,73.51
2024-01-15T12:23:57.430Z,79.55
2024-01-15T12:29:19.605Z,84.14
2024-01-15T12:34:41.555Z,89.73
2024-01-15T12:40:05.617Z,92.04
2024-01-15T12:45:27.719Z,98.67
2024-01-15T12:50:53.302Z,100.00
2024-01-15T12:56:15.122Z,100.00
2024-01-15T13:01:37.292Z,100.00
2024-01-15T13:06:59.293Z,100.00
2024-01-15T13:12:21.782Z,100.00
2024-01-15T13:17:44.850Z,100.00
2024-01-15T13:23:06.963Z,100.00
2024-01-15T13:28:28.798Z,100.00
2024-01-15T13:33:50.826Z,100.00
2024-01-15T13:39:12.754Z,100.00
2024-01-15T13:44:34.754Z,100.00
2024-01-15T13:49:56.601Z,100.00
2024-01-15T13:55:18.717Z,100.00
2024-01-15T14:00:44.494Z,100.00
2024-01-15T14:06:09.965Z,100.00
2024-01-15T14:11:32.326Z,100.00
2024-01-15T14:16:54.112Z,100.00
2024-01-15T14:22:16.000Z,100.00
2024-01-15T14:27:37.954Z,100.00
2024-01-15T14:33:01.241Z,100.00
2024-01-15T14:38:23.706Z,100.00
2024-01-15T14:43:46.006Z,98.64
2024-01-15T14:49:07.913Z,99.77
2024-01-15T14:54:29.812Z,100.00
2024-01-15T14:59:51.598Z,100.00
2024-01-15T15:05:14.729Z,100.00
2024-01-15T15:10:37.007Z,100.00
2024-01-15T15:15:58.898Z,100.00
2024-01-15T15:21:20.763Z,100.00
2024-01-15T15:26:42.651Z,98.83
2024-01-15T15:32:04.750Z,95.09
2024-01-15T15:37:26.953Z,91.32
2024-01-15T15:42:48.773Z,90.37
2024-01-15T15:48:10.803Z,87.29
2024-01-15T15:53:32.689Z,86.50
2024-01-15T15:58:54.549Z,83.71
2024-01-15T16:04:16.849Z,81.72
2024-01-15T16:09:38.918Z,81.38
2024-01-15T16:15:02.204Z,82.36
2024-01-15T16:23:30.404Z,81.57
2024-01-15T16:26:07.956Z,79.19
2024-01-15T16:31:30.092Z,80.45
2024-01-15T16:36:52.285Z,80.13
2024-01-15T16:42:14.244Z,79.53
2024-01-15T16:47:36.176Z,79.05
2024-01-15T16:52:58.404Z,78.92
2024-01-15T16:58:20.311Z,78.42
2024-01-15T17:03:42.319Z,78.39
2024-01-15T17:09:04.216Z,78.47
2024-01-15T17:14:26.062Z,79.08
2024-01-15T17:19:48.319Z,80.61
2024-01-15T17:25:10.168Z,80.41
2024-01-15T17:30:31.941Z,80.34
2024-01-15T17:35:56.119Z,80.66
2024-01-15T17:41:18.064Z,80.87
2024-01-15T17:46:40.322Z,79.67
2024-01-15T17:52:02.694Z,78.16
2024-01-15T17:57:24.561Z,78.32
2024-01-15T18:02:49.949Z,78.93
2024-01-15T18:08:14.629Z,79.84
2024-01-15T18:13:36.434Z,78.02
2024-01-15T18:19:01.087Z,78.20
2024-01-15T18:24:23.026Z,78.61
2024-01-15T18:29:45.216Z,78.66
2024-01-15T18:35:07.492Z,79.29
2024-01-15T18:40:35.774Z,79.43
2024-01-15T18:45:57.593Z,80.07
2024-01-15T18:51:25.718Z,79.06
2024-01-15T18:56:47.672Z,77.84
2024-01-15T19:02:09.691Z,76.14
2024-01-15T19:07:33.937Z,74.70
2024-01-15T19:12:56.232Z,74.02
2024-01-15T19:18:18.181Z,72.71
2024-01-15T19:23:40.366Z,72.98
2024-01-15T19:29:02.227Z,71.43
2024-01-15T19:34:24.175Z,71.55
2024-01-15T19:39:45.976Z,70.73
2024-01-15T19:45:08.236Z,70.51
2024-01-15T19:50:30.233Z,70.34
2024-01-15T19:55:52.176Z,70.42
2024-01-15T20:01:14.136Z,69.95
2024-01-15T20:06:36.138Z,70.82
2024-01-15T20:11:58.107Z,70.27
2024-01-15T20:17:19.946Z,69.54
2024-01-15T20:22:41.846Z,69.15
2024-01-15T20:28:03.908Z,69.74
2024-01-15T20:33:26.005Z,69.42
2024-01-15T20:38:47.919Z,69.05
2024-01-15T20:44:10.350Z,69.56
2024-01-15T20:49:32.247Z,68.87
2024-01-15T20:54:54.207Z,70.06
2024-01-15T21:00:16.616Z,68.88
2024-01-15T21:05:38.467Z,68.74
2024-01-15T21:11:01.032Z,68.71
2024-01-15T21:16:26.244Z,69.83
2024-01-15T21:21:49.011Z,68.46
2024-01-15T21:27:10.845Z,68.47
2024-01-15T21:32:32.591Z,68.87
2024-01-15T21:37:54.563Z,69.69
2024-01-15T21:43:16.449Z,68.91
2024-01-15T21:48:41.281Z,69.94
2024-01-15T21:54:04.819Z,69.29
2024-01-15T21:59:27.357Z,69.10
2024-01-15T22:04:49.224Z,69.06
2024-01-15T22:10:11.777Z,68.90
2024-01-15T22:15:33.620Z,69.34
2024-01-15T22:20:57.400Z,69.53
2024-01-15T22:26:19.287Z,70.30
2024-01-15T22:31:42.365Z,69.34
2024-01-15T22:37:05.709Z,69.39
2024-01-15T22:42:27.739Z,69.58
2024-01-15T22:47:49.817Z,68.99
2024-01-15T22:53:11.884Z,69.10
2024-01-15T22:58:33.987Z,69.90
2024-01-15T23:03:56.315Z,68.76
2024-01-15T23:09:18.861Z,69.04
2024-01-15T23:14:40.891Z,68.90
2024-01-15T23:20:02.972Z,69.51
2024-01-15T23:25:25.006Z,69.66
2024-01-15T23:30:46.890Z,69.72
2024-01-15T23:36:09.870Z,69.68
2024-01-15T23:41:32.584Z,69.71
2024-01-15T23:46:54.457Z,69.56
2024-01-15T23:52:16.373Z,69.46
2024-01-15T23:57:38.183Z,69.71
